Terminal Aerodrome Forecast
Issued by NWS Atlanta, GA

Home | Current Version | Previous Version | Text Only | Print | Product List | Glossary On
Versions: 1 2 3 4 5 6 7 8 9 10 11 12 13 14 15 16 17 18 19 20 21 22 23 24 25 26
000
FTUS42 KFFC 220543
TAFCSG
TAF
KCSG 220543Z 2206/2306 09005KT 6SM -DZ BR OVC006
     FM221600 09007KT 4SM -DZ BR OVC006
     FM222000 10007KT 6SM BR OVC012
     FM230000 09009KT 4SM -DZ BR OVC004=

USA.gov is the U.S. government's official web portal to all federal, state and local government web resources and services.